createdAt,value
2022-09-25T00:00:09.599Z,53.75
2022-09-25T00:00:42.352Z,54.30
2022-09-25T00:01:14.431Z,54.17
2022-09-25T00:01:47.390Z,55.15
2022-09-25T00:02:19.181Z,54.38
2022-09-25T00:02:50.943Z,54.00
2022-09-25T00:03:25.310Z,54.00
2022-09-25T00:03:57.024Z,53.78
2022-09-25T00:04:29.802Z,53.58
2022-09-25T00:05:02.522Z,53.90
2022-09-25T00:05:36.292Z,53.78
2022-09-25T00:06:08.834Z,53.95
2022-09-25T00:06:42.086Z,54.33
2022-09-25T00:07:13.723Z,54.67
2022-09-25T00:07:45.338Z,53.67
2022-09-25T00:08:18.964Z,53.83
2022-09-25T00:08:50.988Z,53.75
2022-09-25T00:09:23.730Z,53.97
2022-09-25T00:09:55.348Z,54.42
2022-09-25T00:10:29.560Z,54.22
2022-09-25T00:11:06.433Z,53.72
2022-09-25T00:11:38.630Z,54.63
2022-09-25T00:12:11.851Z,53.70
2022-09-25T00:12:44.498Z,54.23
2022-09-25T00:13:16.623Z,54.70
2022-09-25T00:13:48.565Z,54.78
2022-09-25T00:14:21.244Z,54.60
2022-09-25T00:14:53.438Z,53.58
2022-09-25T00:15:25.382Z,53.50
2022-09-25T00:15:57.865Z,54.20
2022-09-25T00:16:31.712Z,53.17
2022-09-25T00:17:03.437Z,53.83
2022-09-25T00:17:35.142Z,53.33
2022-09-25T00:18:06.728Z,53.85
2022-09-25T00:18:57.177Z,54.63
2022-09-25T00:19:47.554Z,54.35
2022-09-25T00:20:21.158Z,53.15
2022-09-25T00:21:00.154Z,54.60
2022-09-25T00:21:32.497Z,53.97
2022-09-25T00:22:04.137Z,54.65
2022-09-25T00:22:36.883Z,54.20
2022-09-25T00:23:08.890Z,53.83
2022-09-25T00:23:41.294Z,53.70
2022-09-25T00:24:15.086Z,54.58
2022-09-25T00:24:47.052Z,53.55
2022-09-25T00:25:18.717Z,54.25
2022-09-25T00:25:53.926Z,53.95
2022-09-25T00:26:27.644Z,54.08
2022-09-25T00:27:01.409Z,53.70
2022-09-25T00:27:34.488Z,53.65
2022-09-25T00:28:06.120Z,53.70
2022-09-25T00:28:39.509Z,53.63
2022-09-25T00:29:15.426Z,54.10
2022-09-25T00:29:48.420Z,53.47
2022-09-25T00:30:20.348Z,53.58
2022-09-25T00:30:52.052Z,53.80
2022-09-25T00:31:25.443Z,53.53
2022-09-25T00:31:57.721Z,54.33
2022-09-25T00:32:29.343Z,53.97
2022-09-25T00:33:02.152Z,54.00
2022-09-25T00:33:34.256Z,53.65
2022-09-25T00:34:06.002Z,53.40
2022-09-25T00:34:39.243Z,53.28
2022-09-25T00:35:10.871Z,53.55
2022-09-25T00:35:42.452Z,53.50
2022-09-25T00:36:15.173Z,53.40
2022-09-25T00:36:46.784Z,54.08
2022-09-25T00:37:18.408Z,53.65
2022-09-25T00:37:51.049Z,53.63
2022-09-25T00:38:22.696Z,53.47
2022-09-25T00:38:54.709Z,53.92
2022-09-25T00:39:27.462Z,53.83
2022-09-25T00:39:59.464Z,53.55
2022-09-25T00:40:31.252Z,53.33
2022-09-25T00:41:03.656Z,54.55
2022-09-25T00:41:36.394Z,54.40
2022-09-25T00:42:07.999Z,53.65
2022-09-25T00:42:41.139Z,53.58
2022-09-25T00:43:14.855Z,53.47
2022-09-25T00:43:48.222Z,53.50
2022-09-25T00:44:38.290Z,53.50
2022-09-25T00:45:14.909Z,53.65
2022-09-25T00:45:46.596Z,53.58
2022-09-25T00:46:20.388Z,53.20
2022-09-25T00:46:53.222Z,53.00
2022-09-25T00:47:27.620Z,53.95
2022-09-25T00:48:00.857Z,53.22
2022-09-25T00:48:33.517Z,53.40
2022-09-25T00:49:07.561Z,53.20
2022-09-25T00:49:39.256Z,52.67
2022-09-25T00:50:17.854Z,53.30
2022-09-25T00:50:52.255Z,54.10
2022-09-25T00:51:28.171Z,53.70
2022-09-25T00:52:03.442Z,53.22
2022-09-25T00:52:35.051Z,52.90
2022-09-25T00:53:09.581Z,53.35
2022-09-25T00:53:42.974Z,53.00
2022-09-25T00:54:16.827Z,54.15
2022-09-25T00:54:50.730Z,53.05
2022-09-25T00:55:24.451Z,52.88
2022-09-25T00:55:57.470Z,53.65
2022-09-25T00:56:29.896Z,53.22
2022-09-25T00:57:04.489Z,54.15
2022-09-25T00:57:37.727Z,54.53
2022-09-25T00:58:13.025Z,53.13
2022-09-25T00:58:45.712Z,53.42
2022-09-25T00:59:19.838Z,52.95
2022-09-25T00:59:52.517Z,53.25
2022-09-25T01:00:25.125Z,53.65
2022-09-25T01:00:56.982Z,54.17
2022-09-25T01:01:29.759Z,53.70
2022-09-25T01:02:01.545Z,53.45
2022-09-25T01:02:35.189Z,53.05
2022-09-25T01:03:08.516Z,53.80
2022-09-25T01:03:41.628Z,53.75
2022-09-25T01:04:14.770Z,53.55
2022-09-25T01:04:48.189Z,53.05
2022-09-25T01:05:21.799Z,53.85
2022-09-25T01:05:54.583Z,53.88
2022-09-25T01:06:28.143Z,53.30
2022-09-25T01:06:59.765Z,53.67
2022-09-25T01:07:32.421Z,53.40
2022-09-25T01:08:06.568Z,53.30
2022-09-25T01:08:39.289Z,54.38
2022-09-25T01:09:11.173Z,54.17
2022-09-25T01:09:44.142Z,53.28
2022-09-25T01:10:16.419Z,53.28
2022-09-25T01:10:48.008Z,53.20
2022-09-25T01:11:20.656Z,53.08
2022-09-25T01:11:52.284Z,54.15
2022-09-25T01:12:23.888Z,53.42
2022-09-25T01:12:56.259Z,53.67
2022-09-25T01:13:30.869Z,53.30
2022-09-25T01:14:04.778Z,52.90
2022-09-25T01:14:36.654Z,53.80
2022-09-25T01:15:09.144Z,53.58
2022-09-25T01:15:45.016Z,53.60
2022-09-25T01:16:20.577Z,53.13
2022-09-25T01:16:55.971Z,52.75
2022-09-25T01:17:30.696Z,53.38
2022-09-25T01:18:06.026Z,53.92
2022-09-25T01:18:53.506Z,53.05
2022-09-25T01:19:29.018Z,53.88
2022-09-25T01:20:06.592Z,53.65
2022-09-25T01:20:51.271Z,53.53
2022-09-25T01:21:26.537Z,53.63
2022-09-25T01:22:00.765Z,53.15
2022-09-25T01:22:42.851Z,53.47
2022-09-25T01:23:17.655Z,53.38
2022-09-25T01:23:56.199Z,52.78
2022-09-25T01:24:40.900Z,54.47
2022-09-25T01:25:17.191Z,53.10
2022-09-25T01:25:57.113Z,53.03
2022-09-25T01:26:41.517Z,53.35
2022-09-25T01:27:27.969Z,53.42
2022-09-25T01:28:12.339Z,53.03
2022-09-25T01:29:01.657Z,53.90
2022-09-25T01:29:37.401Z,53.47
2022-09-25T01:30:11.678Z,53.70
2022-09-25T01:30:44.767Z,53.20
2022-09-25T01:31:18.447Z,53.08
2022-09-25T01:31:56.486Z,53.67
2022-09-25T01:32:33.402Z,53.80
2022-09-25T01:33:07.820Z,53.17
2022-09-25T01:33:44.330Z,53.67
2022-09-25T01:34:20.070Z,54.35
2022-09-25T01:34:56.620Z,53.80
2022-09-25T01:35:34.474Z,53.40
2022-09-25T01:36:12.627Z,53.63
2022-09-25T01:36:48.808Z,53.75
2022-09-25T01:37:23.687Z,53.00
2022-09-25T01:37:57.665Z,52.80
2022-09-25T01:38:33.044Z,53.00
2022-09-25T01:39:08.906Z,52.90
2022-09-25T01:39:44.638Z,52.60
2022-09-25T01:40:18.524Z,53.17
2022-09-25T01:40:53.699Z,52.72
2022-09-25T01:41:27.815Z,52.60
2022-09-25T01:42:04.327Z,52.83
2022-09-25T01:42:39.571Z,53.20
2022-09-25T01:43:13.864Z,53.92
2022-09-25T01:43:48.456Z,52.60
2022-09-25T01:44:23.079Z,53.55
2022-09-25T01:44:57.853Z,53.53
2022-09-25T01:45:33.172Z,52.30
2022-09-25T01:46:08.251Z,52.90
2022-09-25T01:46:41.791Z,52.97
2022-09-25T01:47:18.631Z,53.17
2022-09-25T01:47:51.607Z,53.15
2022-09-25T01:48:25.329Z,52.90
2022-09-25T01:49:00.316Z,52.60
2022-09-25T01:49:33.619Z,52.83
2022-09-25T01:50:07.486Z,53.05
2022-09-25T01:50:42.929Z,52.88
2022-09-25T01:51:16.453Z,52.58
2022-09-25T01:51:49.918Z,53.47
2022-09-25T01:52:25.930Z,53.33
2022-09-25T01:52:59.540Z,53.08
2022-09-25T01:53:34.743Z,53.15
2022-09-25T01:54:09.836Z,53.10
2022-09-25T01:54:44.388Z,52.88
2022-09-25T01:55:17.810Z,52.88
2022-09-25T01:55:54.201Z,53.33
2022-09-25T01:56:31.554Z,52.70
2022-09-25T01:57:05.279Z,53.08
2022-09-25T01:57:41.685Z,52.75
2022-09-25T01:58:15.225Z,53.22
2022-09-25T01:58:49.741Z,53.30
2022-09-25T01:59:27.312Z,53.47
2022-09-25T02:00:02.790Z,52.75
2022-09-25T02:00:45.712Z,52.55
2022-09-25T02:01:22.274Z,52.42
2022-09-25T02:01:55.701Z,53.60
2022-09-25T02:02:28.494Z,53.15
2022-09-25T02:03:06.538Z,53.17
2022-09-25T02:03:40.134Z,52.65
2022-09-25T02:04:13.527Z,52.70
2022-09-25T02:04:47.562Z,52.63
2022-09-25T02:05:20.407Z,52.53
2022-09-25T02:05:53.566Z,54.22
2022-09-25T02:06:26.323Z,53.45
2022-09-25T02:06:58.987Z,52.53
2022-09-25T02:07:35.491Z,52.92
2022-09-25T02:08:09.146Z,52.83
2022-09-25T02:08:44.205Z,53.10
2022-09-25T02:09:18.974Z,53.30
2022-09-25T02:09:51.849Z,52.28
2022-09-25T02:10:26.681Z,52.55
2022-09-25T02:11:00.225Z,52.72
2022-09-25T02:11:32.868Z,52.30
2022-09-25T02:12:07.865Z,52.67
2022-09-25T02:12:43.751Z,52.65
2022-09-25T02:13:18.271Z,52.65
2022-09-25T02:13:51.553Z,52.45
2022-09-25T02:14:23.985Z,52.20
2022-09-25T02:14:57.973Z,52.35
2022-09-25T02:15:33.589Z,52.65
2022-09-25T02:16:10.153Z,53.08
2022-09-25T02:16:43.931Z,52.78
2022-09-25T02:17:39.711Z,52.50
2022-09-25T02:18:33.986Z,52.33
2022-09-25T02:19:23.960Z,52.40
2022-09-25T02:20:14.201Z,52.78
2022-09-25T02:20:47.617Z,52.65
2022-09-25T02:21:24.333Z,53.25
2022-09-25T02:22:00.632Z,53.53
2022-09-25T02:22:35.552Z,52.63
2022-09-25T02:23:08.755Z,52.63
2022-09-25T02:23:45.957Z,52.55
2022-09-25T02:24:20.959Z,52.67
2022-09-25T02:24:59.287Z,52.40
2022-09-25T02:25:36.158Z,52.85
2022-09-25T02:26:12.201Z,52.50
2022-09-25T02:26:44.939Z,52.75
2022-09-25T02:27:18.323Z,52.50
2022-09-25T02:27:49.999Z,53.10
2022-09-25T02:28:22.951Z,53.00
2022-09-25T02:28:54.943Z,52.03
2022-09-25T02:29:26.576Z,53.25
2022-09-25T02:29:58.504Z,52.20
2022-09-25T02:30:32.546Z,52.83
2022-09-25T02:31:07.496Z,52.63
2022-09-25T02:31:43.259Z,52.10
2022-09-25T02:32:17.356Z,52.63
2022-09-25T02:32:49.025Z,52.70
2022-09-25T02:33:21.842Z,52.78
2022-09-25T02:33:53.488Z,52.00
2022-09-25T02:34:25.477Z,52.50
2022-09-25T02:34:58.513Z,51.88
2022-09-25T02:35:30.121Z,52.38
2022-09-25T02:36:03.118Z,52.80
2022-09-25T02:36:36.015Z,52.88
2022-09-25T02:37:10.121Z,52.55
2022-09-25T02:37:41.789Z,52.40
2022-09-25T02:38:15.659Z,52.05
2022-09-25T02:38:48.634Z,52.30
2022-09-25T02:39:21.504Z,52.03
2022-09-25T02:39:55.429Z,52.85
2022-09-25T02:40:42.577Z,52.47
2022-09-25T02:41:17.654Z,52.88
2022-09-25T02:42:02.659Z,52.47
2022-09-25T02:42:38.588Z,52.80
2022-09-25T02:43:21.510Z,52.63
2022-09-25T02:43:59.763Z,53.97
2022-09-25T02:44:35.951Z,52.35
2022-09-25T02:45:11.127Z,52.30
2022-09-25T02:45:51.145Z,52.50
2022-09-25T02:46:26.574Z,52.58
2022-09-25T02:47:03.899Z,52.70
2022-09-25T02:47:38.865Z,52.13
2022-09-25T02:48:14.111Z,52.53
2022-09-25T02:48:49.720Z,52.60
2022-09-25T02:49:25.449Z,52.78
2022-09-25T02:50:05.529Z,52.60
2022-09-25T02:50:41.847Z,52.63
2022-09-25T02:51:19.591Z,52.90
2022-09-25T02:51:55.070Z,53.47
2022-09-25T02:52:28.961Z,53.05
2022-09-25T02:53:05.733Z,53.42
2022-09-25T02:53:38.991Z,52.55
2022-09-25T02:54:12.950Z,52.63
2022-09-25T02:54:47.147Z,52.88
2022-09-25T02:55:22.272Z,52.17
2022-09-25T02:55:55.591Z,52.50
2022-09-25T02:56:31.203Z,52.70
2022-09-25T02:57:06.213Z,53.22
2022-09-25T02:57:41.126Z,52.90
2022-09-25T02:58:17.173Z,53.00
2022-09-25T02:58:50.859Z,53.30
2022-09-25T02:59:25.690Z,52.08
2022-09-25T03:00:00.170Z,52.30
2022-09-25T03:00:35.685Z,52.85
2022-09-25T03:01:10.395Z,52.90
2022-09-25T03:01:42.907Z,52.70
2022-09-25T03:02:16.773Z,53.28
2022-09-25T03:02:52.439Z,53.15
2022-09-25T03:03:25.471Z,52.53
2022-09-25T03:03:59.538Z,52.35
2022-09-25T03:04:34.779Z,52.97
2022-09-25T03:05:07.173Z,51.85
2022-09-25T03:05:39.294Z,52.78
2022-09-25T03:06:12.130Z,52.85
2022-09-25T03:06:44.285Z,52.78
2022-09-25T03:07:16.101Z,53.05
2022-09-25T03:08:06.035Z,52.80
2022-09-25T03:08:41.498Z,52.50
2022-09-25T03:09:15.409Z,51.95
2022-09-25T03:09:48.922Z,52.58
2022-09-25T03:10:20.800Z,53.38
2022-09-25T03:10:52.444Z,53.08
2022-09-25T03:11:26.885Z,52.97
2022-09-25T03:11:59.202Z,52.60
2022-09-25T03:12:35.802Z,52.42
2022-09-25T03:13:14.248Z,52.83
2022-09-25T03:13:46.909Z,52.72
2022-09-25T03:14:18.542Z,52.40
2022-09-25T03:14:50.411Z,53.00
2022-09-25T03:15:23.843Z,52.90
2022-09-25T03:15:58.902Z,52.30
2022-09-25T03:16:35.044Z,53.15
2022-09-25T03:17:09.547Z,52.83
2022-09-25T03:17:41.233Z,52.08
2022-09-25T03:18:13.015Z,53.40
2022-09-25T03:18:45.968Z,52.80
2022-09-25T03:19:19.734Z,52.95
2022-09-25T03:19:51.450Z,53.97
2022-09-25T03:20:26.578Z,52.63
2022-09-25T03:20:58.207Z,52.78
2022-09-25T03:21:29.781Z,52.58
2022-09-25T03:22:02.867Z,52.70
2022-09-25T03:22:34.458Z,52.58
2022-09-25T03:23:06.304Z,52.90
2022-09-25T03:23:38.919Z,52.60
2022-09-25T03:24:10.648Z,53.00
2022-09-25T03:24:42.536Z,53.25
2022-09-25T03:25:16.102Z,53.03
2022-09-25T03:25:50.242Z,52.63
2022-09-25T03:26:23.290Z,52.50
2022-09-25T03:26:55.113Z,53.33
2022-09-25T03:27:28.232Z,53.00
2022-09-25T03:27:59.854Z,53.25
2022-09-25T03:28:31.615Z,52.83
2022-09-25T03:29:04.578Z,53.00
2022-09-25T03:29:36.469Z,53.25
2022-09-25T03:30:08.804Z,52.70
2022-09-25T03:30:41.005Z,52.78
2022-09-25T03:31:13.788Z,53.10
2022-09-25T03:31:47.037Z,53.28
2022-09-25T03:32:18.628Z,52.83
2022-09-25T03:32:51.218Z,52.72
2022-09-25T03:33:22.828Z,52.80
2022-09-25T03:33:54.431Z,53.65
2022-09-25T03:34:27.084Z,53.03
2022-09-25T03:34:58.762Z,52.75
2022-09-25T03:35:30.397Z,53.08
2022-09-25T03:36:03.037Z,52.83
2022-09-25T03:36:36.357Z,53.22
2022-09-25T03:37:07.969Z,52.83
2022-09-25T03:37:39.534Z,53.35
2022-09-25T03:38:12.501Z,53.00
2022-09-25T03:38:45.852Z,52.78
2022-09-25T03:39:18.029Z,53.22
2022-09-25T03:39:49.989Z,52.70
2022-09-25T03:40:22.671Z,53.65
2022-09-25T03:40:54.540Z,52.65
2022-09-25T03:41:27.484Z,52.95
2022-09-25T03:42:00.093Z,51.90
2022-09-25T03:42:32.292Z,52.30
2022-09-25T03:43:37.403Z,52.33
2022-09-25T03:44:09.088Z,52.25
2022-09-25T03:44:40.766Z,52.58
2022-09-25T03:45:13.403Z,52.83
2022-09-25T03:45:45.002Z,52.90
2022-09-25T03:46:17.040Z,53.08
2022-09-25T03:46:51.042Z,52.88
2022-09-25T03:47:22.673Z,53.40
2022-09-25T03:47:54.314Z,53.00
2022-09-25T03:48:25.969Z,52.72
2022-09-25T03:48:58.878Z,52.97
2022-09-25T03:49:30.500Z,52.70
2022-09-25T03:50:02.111Z,52.92
2022-09-25T03:50:34.964Z,52.72
2022-09-25T03:51:07.225Z,52.92
2022-09-25T03:51:39.152Z,52.85
2022-09-25T03:52:12.758Z,52.97
2022-09-25T03:52:44.443Z,52.53
2022-09-25T03:53:16.173Z,53.20
2022-09-25T03:53:49.207Z,53.38
2022-09-25T03:54:20.870Z,52.40
2022-09-25T03:54:52.482Z,52.97
2022-09-25T03:55:26.057Z,53.72
2022-09-25T03:55:57.908Z,52.70
2022-09-25T03:56:29.883Z,52.70
2022-09-25T03:57:02.616Z,52.10
2022-09-25T03:57:34.254Z,53.05
2022-09-25T03:58:05.862Z,52.70
2022-09-25T03:58:38.450Z,52.50
2022-09-25T03:59:10.050Z,52.72
2022-09-25T03:59:41.737Z,52.65
2022-09-25T04:00:14.719Z,52.45
2022-09-25T04:00:46.740Z,52.67
2022-09-25T04:01:19.460Z,52.90
2022-09-25T04:01:53.662Z,53.00
2022-09-25T04:02:25.443Z,52.55
2022-09-25T04:02:59.421Z,52.50
2022-09-25T04:03:32.969Z,52.90
2022-09-25T04:04:04.682Z,52.92
2022-09-25T04:04:37.619Z,53.38
2022-09-25T04:05:10.945Z,53.22
2022-09-25T04:05:43.647Z,52.58
2022-09-25T04:06:18.446Z,52.50
2022-09-25T04:06:51.084Z,52.40
2022-09-25T04:07:23.635Z,52.97
2022-09-25T04:07:55.238Z,53.10
2022-09-25T04:08:27.878Z,52.65
2022-09-25T04:09:00.484Z,52.47
2022-09-25T04:09:32.357Z,52.30
2022-09-25T04:10:04.223Z,52.45
2022-09-25T04:10:38.722Z,52.35
2022-09-25T04:11:10.515Z,52.60
2022-09-25T04:11:43.472Z,52.80
2022-09-25T04:12:16.325Z,52.30
2022-09-25T04:12:47.981Z,52.28
2022-09-25T04:13:19.822Z,52.38
2022-09-25T04:13:52.689Z,52.55
2022-09-25T04:14:24.404Z,52.75
2022-09-25T04:14:56.994Z,53.20
2022-09-25T04:15:29.796Z,52.47
2022-09-25T04:16:02.048Z,52.90
2022-09-25T04:16:33.814Z,52.92
2022-09-25T04:17:07.841Z,52.30
2022-09-25T04:17:39.446Z,52.38
2022-09-25T04:18:11.064Z,52.83
2022-09-25T04:18:43.796Z,52.42
2022-09-25T04:19:15.581Z,53.00
2022-09-25T04:19:47.202Z,52.63
2022-09-25T04:20:19.870Z,51.90
2022-09-25T04:20:51.589Z,52.55
2022-09-25T04:21:24.283Z,52.88
2022-09-25T04:21:55.986Z,52.50
2022-09-25T04:22:27.613Z,53.28
2022-09-25T04:23:00.224Z,52.30
2022-09-25T04:23:31.801Z,52.85
2022-09-25T04:24:21.887Z,52.95
2022-09-25T04:24:55.210Z,52.72
2022-09-25T04:25:28.011Z,52.30
2022-09-25T04:25:59.617Z,52.95
2022-09-25T04:26:31.758Z,52.70
2022-09-25T04:27:04.432Z,52.10
2022-09-25T04:27:36.769Z,52.22
2022-09-25T04:28:10.110Z,52.38
2022-09-25T04:28:45.371Z,52.33
2022-09-25T04:29:18.049Z,52.28
2022-09-25T04:29:49.768Z,51.88
2022-09-25T04:30:22.476Z,52.45
2022-09-25T04:30:54.137Z,52.65
2022-09-25T04:31:25.767Z,51.80
2022-09-25T04:32:16.236Z,53.03
2022-09-25T04:33:07.710Z,52.35
2022-09-25T04:33:49.398Z,52.47
2022-09-25T04:34:20.961Z,52.33
2022-09-25T04:34:53.112Z,52.42
2022-09-25T04:35:24.701Z,52.92
2022-09-25T04:35:57.421Z,52.28
2022-09-25T04:36:29.061Z,52.85
2022-09-25T04:37:01.252Z,52.47
2022-09-25T04:37:33.843Z,53.38
2022-09-25T04:38:05.478Z,52.63
2022-09-25T04:38:37.176Z,53.35
2022-09-25T04:39:11.450Z,51.70
2022-09-25T04:39:43.088Z,52.90
2022-09-25T04:40:15.043Z,52.97
2022-09-25T04:40:47.788Z,52.40
2022-09-25T04:41:20.178Z,52.73
2022-09-25T04:41:51.916Z,52.60
2022-09-25T04:42:25.152Z,52.58
2022-09-25T04:42:57.404Z,52.63
2022-09-25T04:43:29.399Z,52.22
2022-09-25T04:44:05.368Z,52.88
2022-09-25T04:44:36.962Z,53.10
2022-09-25T04:45:08.923Z,52.25
2022-09-25T04:45:41.569Z,53.08
2022-09-25T04:46:20.028Z,52.50
2022-09-25T04:46:53.369Z,53.22
2022-09-25T04:47:27.038Z,52.85
2022-09-25T04:48:00.450Z,52.17
2022-09-25T04:48:32.358Z,52.25
2022-09-25T04:49:05.024Z,52.88
2022-09-25T04:49:37.540Z,52.95
2022-09-25T04:50:09.282Z,52.30
2022-09-25T04:50:48.148Z,52.38
2022-09-25T04:51:19.823Z,52.67
2022-09-25T04:51:51.464Z,52.25
2022-09-25T04:52:24.429Z,52.72
2022-09-25T04:52:58.118Z,52.53
2022-09-25T04:53:30.841Z,52.35
2022-09-25T04:54:02.701Z,52.13
2022-09-25T04:54:34.326Z,52.78
2022-09-25T04:55:07.230Z,53.05
2022-09-25T04:55:39.578Z,53.47
2022-09-25T04:56:15.329Z,52.92
2022-09-25T04:56:48.796Z,52.35
2022-09-25T04:57:45.614Z,53.60
2022-09-25T04:58:13.520Z,53.05
2022-09-25T04:58:46.189Z,53.50
2022-09-25T04:59:17.899Z,53.33
2022-09-25T04:59:50.937Z,53.35
2022-09-25T05:00:22.922Z,52.58
2022-09-25T05:00:54.749Z,52.90
2022-09-25T05:01:27.683Z,52.70
2022-09-25T05:01:59.443Z,53.60
2022-09-25T05:02:31.289Z,52.90
2022-09-25T05:03:05.972Z,53.08
2022-09-25T05:03:37.814Z,53.13
2022-09-25T05:04:09.895Z,52.43
2022-09-25T05:04:42.728Z,53.30
2022-09-25T05:05:14.403Z,53.33
2022-09-25T05:05:45.998Z,53.55
2022-09-25T05:06:18.746Z,53.72
2022-09-25T05:06:51.488Z,52.50
2022-09-25T05:07:23.149Z,52.80
2022-09-25T05:07:56.302Z,52.78
2022-09-25T05:08:28.038Z,53.00
2022-09-25T05:08:59.634Z,52.55
2022-09-25T05:09:32.622Z,52.70
2022-09-25T05:10:04.535Z,52.73
2022-09-25T05:10:36.150Z,53.05
2022-09-25T05:11:08.970Z,52.85
2022-09-25T05:11:40.956Z,52.60
2022-09-25T05:12:12.618Z,53.03
2022-09-25T05:12:46.013Z,52.78
2022-09-25T05:13:18.690Z,52.85
2022-09-25T05:13:51.285Z,53.20
2022-09-25T05:14:23.945Z,52.90
2022-09-25T05:14:55.624Z,52.65
2022-09-25T05:15:28.380Z,52.63
2022-09-25T05:16:01.000Z,53.50
2022-09-25T05:16:32.774Z,53.30
2022-09-25T05:17:06.346Z,52.45
2022-09-25T05:17:39.022Z,52.75
2022-09-25T05:18:15.761Z,53.33
2022-09-25T05:18:48.706Z,53.03
2022-09-25T05:19:20.381Z,52.80
2022-09-25T05:19:51.953Z,53.03
2022-09-25T05:20:24.540Z,53.00
2022-09-25T05:20:56.856Z,53.55
2022-09-25T05:21:29.426Z,53.03
2022-09-25T05:22:01.338Z,53.13
2022-09-25T05:22:32.929Z,53.20
2022-09-25T05:23:05.984Z,52.85
2022-09-25T05:23:37.746Z,52.88
2022-09-25T05:24:09.945Z,53.22
2022-09-25T05:24:42.605Z,53.25
2022-09-25T05:25:14.187Z,52.55
2022-09-25T05:25:50.983Z,53.13
2022-09-25T05:26:23.945Z,53.33
2022-09-25T05:26:58.079Z,53.85
2022-09-25T05:27:29.664Z,52.90
2022-09-25T05:28:02.584Z,53.63
2022-09-25T05:28:34.248Z,53.63
2022-09-25T05:29:06.251Z,53.63
2022-09-25T05:29:38.934Z,53.72
2022-09-25T05:30:11.228Z,53.47
2022-09-25T05:30:43.661Z,53.95
2022-09-25T05:31:16.739Z,53.50
2022-09-25T05:31:49.880Z,53.22
2022-09-25T05:32:22.884Z,52.95
2022-09-25T05:32:58.244Z,53.00
2022-09-25T05:33:31.453Z,52.90
2022-09-25T05:34:03.263Z,53.53
2022-09-25T05:34:35.992Z,53.75
2022-09-25T05:35:08.079Z,54.13
2022-09-25T05:35:39.718Z,53.70
2022-09-25T05:36:12.640Z,52.95
2022-09-25T05:36:44.284Z,53.50
2022-09-25T05:37:15.899Z,52.72
2022-09-25T05:37:47.805Z,53.10
2022-09-25T05:38:20.397Z,53.33
2022-09-25T05:38:52.051Z,53.15
2022-09-25T05:39:23.709Z,52.83
2022-09-25T05:39:56.309Z,54.42
2022-09-25T05:40:27.980Z,52.88
2022-09-25T05:41:01.934Z,52.95
2022-09-25T05:41:34.778Z,53.33
2022-09-25T05:42:06.489Z,53.30
2022-09-25T05:42:38.143Z,52.90
2022-09-25T05:43:12.526Z,53.20
2022-09-25T05:43:47.552Z,53.03
2022-09-25T05:44:19.371Z,53.22
2022-09-25T05:44:52.039Z,53.05
2022-09-25T05:45:23.929Z,53.13
2022-09-25T05:45:55.623Z,52.83
2022-09-25T05:46:28.391Z,53.65
2022-09-25T05:47:00.010Z,53.10
2022-09-25T05:47:31.617Z,52.85
2022-09-25T05:48:04.220Z,53.70
2022-09-25T05:48:38.317Z,53.53
2022-09-25T05:49:09.940Z,53.35
2022-09-25T05:49:41.570Z,53.20
2022-09-25T05:50:15.153Z,53.85
2022-09-25T05:50:50.852Z,53.85
2022-09-25T05:51:22.616Z,53.08
2022-09-25T05:51:55.215Z,53.55
2022-09-25T05:52:26.836Z,53.58
2022-09-25T05:52:58.929Z,53.10
2022-09-25T05:53:31.591Z,53.00
2022-09-25T05:54:03.378Z,53.97
2022-09-25T05:54:35.546Z,53.13
2022-09-25T05:55:09.721Z,53.28
2022-09-25T05:55:41.390Z,53.70
2022-09-25T05:56:13.999Z,53.42
2022-09-25T05:56:45.622Z,53.50
2022-09-25T05:57:17.470Z,53.55
2022-09-25T05:57:49.086Z,53.25
2022-09-25T05:58:22.014Z,53.10
2022-09-25T05:58:54.154Z,53.17
2022-09-25T05:59:26.731Z,53.10
2022-09-25T05:59:59.096Z,53.10
2022-09-25T06:00:32.769Z,53.50
2022-09-25T06:01:05.716Z,53.90
2022-09-25T06:01:38.400Z,54.00
2022-09-25T06:02:11.234Z,53.75
2022-09-25T06:02:42.958Z,53.10
2022-09-25T06:03:16.474Z,52.75
2022-09-25T06:03:49.597Z,53.25
2022-09-25T06:04:21.960Z,53.17
2022-09-25T06:04:54.815Z,53.65
2022-09-25T06:05:26.433Z,53.45
2022-09-25T06:05:58.423Z,53.30
2022-09-25T06:06:31.769Z,53.33
2022-09-25T06:07:03.405Z,53.00
2022-09-25T06:07:35.073Z,52.97
2022-09-25T06:08:08.046Z,53.78
2022-09-25T06:08:39.653Z,53.65
2022-09-25T06:09:12.209Z,53.28
2022-09-25T06:09:43.831Z,53.78
2022-09-25T06:10:15.890Z,54.33
2022-09-25T06:10:52.890Z,53.88
2022-09-25T06:11:24.605Z,53.25
2022-09-25T06:11:56.579Z,54.03
2022-09-25T06:12:29.911Z,53.60
2022-09-25T06:13:02.152Z,54.33
2022-09-25T06:13:34.658Z,54.35
2022-09-25T06:14:07.492Z,53.53
2022-09-25T06:14:40.948Z,54.03
2022-09-25T06:15:12.844Z,53.80
2022-09-25T06:15:45.513Z,53.50
2022-09-25T06:16:19.387Z,54.35
2022-09-25T06:16:51.169Z,53.78
2022-09-25T06:17:23.774Z,53.78
2022-09-25T06:17:55.827Z,54.47
2022-09-25T06:18:27.960Z,54.17
2022-09-25T06:19:01.961Z,53.38
2022-09-25T06:19:33.861Z,53.70
2022-09-25T06:20:06.102Z,54.28
2022-09-25T06:20:38.793Z,53.35
2022-09-25T06:21:10.508Z,53.05
2022-09-25T06:21:42.139Z,53.20
2022-09-25T06:22:15.015Z,54.70
2022-09-25T06:22:51.800Z,53.95
2022-09-25T06:23:23.415Z,53.70
2022-09-25T06:23:56.017Z,53.88
2022-09-25T06:24:27.662Z,53.55
2022-09-25T06:24:59.271Z,53.78
2022-09-25T06:25:33.796Z,53.22
2022-09-25T06:26:06.971Z,54.47
2022-09-25T06:26:38.630Z,54.55
2022-09-25T06:27:11.216Z,54.28
2022-09-25T06:27:42.840Z,54.33
2022-09-25T06:28:14.461Z,53.75
2022-09-25T06:28:47.080Z,55.20
2022-09-25T06:29:18.740Z,53.75
2022-09-25T06:29:50.319Z,53.60
2022-09-25T06:30:22.655Z,53.85
2022-09-25T06:30:55.255Z,53.30
2022-09-25T06:31:27.142Z,53.90
2022-09-25T06:31:58.834Z,54.17
2022-09-25T06:32:31.389Z,54.03
2022-09-25T06:33:04.367Z,53.70
2022-09-25T06:33:37.006Z,53.78
2022-09-25T06:34:11.885Z,53.38
2022-09-25T06:34:43.659Z,53.67
2022-09-25T06:35:16.309Z,54.22
2022-09-25T06:35:48.297Z,53.92
2022-09-25T06:36:19.935Z,53.85
2022-09-25T06:36:52.637Z,53.53
2022-09-25T06:37:24.349Z,54.17
2022-09-25T06:37:57.093Z,53.28
2022-09-25T06:38:29.939Z,53.28
2022-09-25T06:39:01.821Z,53.67
2022-09-25T06:39:33.947Z,53.58
2022-09-25T06:40:07.226Z,53.47
2022-09-25T06:40:41.383Z,54.15
2022-09-25T06:41:13.412Z,53.75
2022-09-25T06:41:46.047Z,55.53
2022-09-25T06:42:25.405Z,54.05
2022-09-25T06:42:57.166Z,54.00
2022-09-25T06:43:30.282Z,54.15
2022-09-25T06:44:01.975Z,54.13
2022-09-25T06:44:34.294Z,54.17
2022-09-25T06:45:07.266Z,54.42
2022-09-25T06:45:39.154Z,54.45
2022-09-25T06:46:10.888Z,53.97
2022-09-25T06:46:45.182Z,54.50
2022-09-25T06:47:19.612Z,54.78
2022-09-25T06:47:57.792Z,53.70
2022-09-25T06:48:30.929Z,53.80
2022-09-25T06:49:02.552Z,54.55
2022-09-25T06:49:35.542Z,54.63
2022-09-25T06:50:08.425Z,53.75
2022-09-25T06:50:40.893Z,54.95
2022-09-25T06:51:13.480Z,53.80
2022-09-25T06:51:45.119Z,54.97
2022-09-25T06:52:16.978Z,53.88
2022-09-25T06:52:49.557Z,53.85
2022-09-25T06:53:21.992Z,54.05
2022-09-25T06:53:54.841Z,54.22
2022-09-25T06:54:29.710Z,54.53
2022-09-25T06:55:01.270Z,54.30
2022-09-25T06:55:34.588Z,54.63
2022-09-25T06:56:06.636Z,54.60
2022-09-25T06:56:39.652Z,54.70
2022-09-25T06:57:12.764Z,54.30
2022-09-25T06:57:45.947Z,54.97
2022-09-25T06:58:19.613Z,54.97
2022-09-25T06:58:52.255Z,55.05
2022-09-25T06:59:25.831Z,54.53
2022-09-25T06:59:57.465Z,54.30
2022-09-25T07:00:30.009Z,54.60
2022-09-25T07:01:05.114Z,54.60
2022-09-25T07:01:39.027Z,54.72
2022-09-25T07:02:29.528Z,54.25
2022-09-25T07:03:19.734Z,55.63
2022-09-25T07:03:51.468Z,54.58
2022-09-25T07:04:23.703Z,55.03
2022-09-25T07:04:56.712Z,54.28
2022-09-25T07:05:29.326Z,55.03
2022-09-25T07:06:01.585Z,54.35
2022-09-25T07:06:35.123Z,54.42
2022-09-25T07:07:08.374Z,54.33
2022-09-25T07:07:40.015Z,54.67
2022-09-25T07:08:13.049Z,54.90
2022-09-25T07:08:46.312Z,55.20
2022-09-25T07:09:18.036Z,54.50
2022-09-25T07:09:49.687Z,55.10
2022-09-25T07:10:21.288Z,54.80
2022-09-25T07:10:54.897Z,54.95
2022-09-25T07:11:28.032Z,54.97
2022-09-25T07:11:59.718Z,54.45
2022-09-25T07:12:34.187Z,54.58
2022-09-25T07:13:05.817Z,54.65
2022-09-25T07:13:39.011Z,54.97
2022-09-25T07:14:10.730Z,54.80